createdAt,value
2023-03-13T00:01:48.677Z,11.15
2023-03-13T00:06:48.540Z,11.47
2023-03-13T00:11:48.453Z,11.33
2023-03-13T00:16:48.440Z,11.29
2023-03-13T00:21:48.357Z,11.28
2023-03-13T00:26:48.301Z,11.51
2023-03-13T00:31:48.276Z,11.29
2023-03-13T00:36:48.377Z,11.37
2023-03-13T00:41:48.120Z,11.51
2023-03-13T00:46:48.157Z,11.40
2023-03-13T00:51:56.969Z,11.76
2023-03-13T00:56:47.987Z,11.51
2023-03-13T01:01:47.941Z,11.55
2023-03-13T01:06:47.889Z,11.44
2023-03-13T01:11:47.830Z,11.32
2023-03-13T01:16:47.770Z,11.19
2023-03-13T01:21:47.731Z,11.18
2023-03-13T01:26:47.621Z,11.21
2023-03-13T01:31:47.583Z,11.09
2023-03-13T01:36:47.531Z,10.92
2023-03-13T01:41:47.480Z,10.79
2023-03-13T01:46:47.493Z,10.94
2023-03-13T01:51:47.357Z,10.88
2023-03-13T01:56:47.331Z,10.97
2023-03-13T02:01:47.335Z,10.85
2023-03-13T02:06:47.196Z,10.78
2023-03-13T02:11:47.118Z,10.67
2023-03-13T02:16:47.310Z,10.85
2023-03-13T02:21:47.035Z,10.74
2023-03-13T02:26:46.959Z,10.76
2023-03-13T02:31:47.180Z,10.73
2023-03-13T02:36:46.935Z,10.82
2023-03-13T02:41:47.813Z,10.85
2023-03-13T02:46:46.817Z,10.85
2023-03-13T02:51:46.688Z,10.73
2023-03-13T02:56:46.619Z,10.94
2023-03-13T03:01:46.717Z,10.91
2023-03-13T03:06:46.494Z,10.96
2023-03-13T03:11:46.520Z,10.99
2023-03-13T03:16:46.466Z,11.00
2023-03-13T03:21:46.373Z,10.86
2023-03-13T03:26:46.292Z,11.17
2023-03-13T03:31:46.259Z,11.04
2023-03-13T03:36:46.252Z,11.19
2023-03-13T03:41:46.101Z,11.24
2023-03-13T03:46:46.109Z,11.21
2023-03-13T03:51:46.068Z,11.24
2023-03-13T03:56:46.017Z,11.28
2023-03-13T04:01:45.932Z,11.28
2023-03-13T04:06:45.857Z,11.35
2023-03-13T04:11:45.771Z,11.46
2023-03-13T04:16:45.764Z,11.46
2023-03-13T04:21:45.676Z,11.55
2023-03-13T04:26:45.638Z,11.51
2023-03-13T04:31:45.588Z,11.64
2023-03-13T04:36:45.525Z,11.58
2023-03-13T04:41:45.445Z,11.69
2023-03-13T04:46:45.355Z,11.58
2023-03-13T04:51:45.347Z,11.70
2023-03-13T04:56:45.346Z,11.73
2023-03-13T05:01:45.247Z,11.70
2023-03-13T05:06:45.210Z,11.76
2023-03-13T05:11:45.114Z,11.85
2023-03-13T05:16:45.114Z,11.91
2023-03-13T05:21:45.022Z,12.02
2023-03-13T05:26:44.944Z,11.95
2023-03-13T05:31:44.893Z,12.14
2023-03-13T05:36:44.850Z,12.02
2023-03-13T05:41:44.780Z,12.17
2023-03-13T05:46:44.797Z,12.23
2023-03-13T05:51:48.476Z,12.47
2023-03-13T05:56:45.591Z,12.52
2023-03-13T06:01:44.744Z,12.68
2023-03-13T06:06:44.605Z,12.77
2023-03-13T06:11:44.668Z,12.79
2023-03-13T06:16:44.719Z,12.87
2023-03-13T06:21:45.260Z,12.96
2023-03-13T06:26:44.304Z,13.07
2023-03-13T06:31:44.332Z,13.29
2023-03-13T06:36:44.243Z,13.32
2023-03-13T06:41:44.183Z,13.23
2023-03-13T06:46:44.101Z,13.44
2023-03-13T06:51:44.015Z,13.48
2023-03-13T06:56:43.927Z,13.54
2023-03-13T07:01:53.249Z,13.73
2023-03-13T07:06:43.851Z,13.67
2023-03-13T07:11:43.886Z,13.62
2023-03-13T07:16:43.808Z,13.87
2023-03-13T07:21:43.706Z,13.92
2023-03-13T07:26:57.697Z,13.85
2023-03-13T07:31:44.607Z,14.07
2023-03-13T07:36:43.609Z,14.09
2023-03-13T07:41:43.477Z,14.36
2023-03-13T07:46:43.378Z,14.35
2023-03-13T07:51:44.474Z,14.45
2023-03-13T07:56:43.278Z,14.43
2023-03-13T08:01:43.240Z,14.52
2023-03-13T08:06:43.164Z,14.58
2023-03-13T08:11:43.139Z,14.61
2023-03-13T08:16:43.146Z,14.62
2023-03-13T08:21:43.061Z,14.62
2023-03-13T08:26:42.947Z,14.65
2023-03-13T08:31:42.906Z,14.70
2023-03-13T08:36:42.865Z,14.50
2023-03-13T08:41:42.773Z,14.65
2023-03-13T08:46:42.817Z,14.78
2023-03-13T08:51:42.661Z,14.62
2023-03-13T08:56:42.655Z,14.68
2023-03-13T09:01:42.569Z,15.02
2023-03-13T09:06:42.541Z,14.88
2023-03-13T09:11:42.503Z,15.01
2023-03-13T09:16:42.417Z,15.17
2023-03-13T09:21:42.338Z,15.53
2023-03-13T09:26:48.963Z,15.74
2023-03-13T09:31:43.244Z,15.87
2023-03-13T09:36:42.162Z,15.82
2023-03-13T09:41:42.120Z,15.74
2023-03-13T09:46:42.134Z,15.78
2023-03-13T09:51:42.040Z,15.76
2023-03-13T09:56:41.953Z,16.04
2023-03-13T10:01:41.923Z,16.02
2023-03-13T10:06:41.860Z,15.65
2023-03-13T10:11:41.823Z,15.69
2023-03-13T10:16:41.759Z,16.17
2023-03-13T10:21:41.668Z,16.33
2023-03-13T10:26:41.618Z,16.64
2023-03-13T10:31:41.652Z,16.89
2023-03-13T10:36:41.534Z,16.67
2023-03-13T10:41:41.431Z,16.76
2023-03-13T10:46:41.436Z,16.73
2023-03-13T10:51:41.347Z,16.79
2023-03-13T10:56:41.284Z,16.79
2023-03-13T11:01:41.258Z,16.76
2023-03-13T11:06:41.209Z,16.78
2023-03-13T11:11:41.157Z,17.00
2023-03-13T11:16:41.191Z,17.15
2023-03-13T11:21:41.037Z,17.40
2023-03-13T11:26:40.994Z,17.33
2023-03-13T11:31:40.968Z,17.14
2023-03-13T11:36:40.868Z,17.30
2023-03-13T11:41:40.812Z,17.58
2023-03-13T11:46:40.939Z,17.58
2023-03-13T11:51:40.698Z,17.52
2023-03-13T11:56:40.628Z,17.62
2023-03-13T12:01:40.565Z,17.72
2023-03-13T12:06:40.522Z,17.71
2023-03-13T12:11:40.424Z,17.93
2023-03-13T12:16:40.507Z,17.62
2023-03-13T12:21:40.460Z,17.64
2023-03-13T12:26:40.311Z,17.75
2023-03-13T12:31:40.227Z,17.87
2023-03-13T12:36:40.176Z,18.00
2023-03-13T12:41:40.134Z,18.42
2023-03-13T12:46:40.204Z,18.05
2023-03-13T12:51:40.021Z,18.23
2023-03-13T12:56:39.946Z,18.07
2023-03-13T13:01:39.966Z,18.11
2023-03-13T13:06:39.960Z,18.32
2023-03-13T13:11:39.833Z,18.36
2023-03-13T13:16:39.752Z,17.97
2023-03-13T13:21:40.726Z,18.05
2023-03-13T13:26:39.627Z,18.20
2023-03-13T13:31:39.646Z,18.21
2023-03-13T13:36:39.575Z,18.20
2023-03-13T13:41:39.587Z,18.17
2023-03-13T13:46:39.454Z,18.20
2023-03-13T13:51:39.451Z,18.17
2023-03-13T13:56:39.397Z,18.30
2023-03-13T14:01:39.290Z,18.52
2023-03-13T14:06:39.166Z,18.58
2023-03-13T14:11:39.174Z,18.33
2023-03-13T14:16:39.164Z,18.03
2023-03-13T14:21:39.043Z,17.79
2023-03-13T14:26:38.976Z,17.97
2023-03-13T14:31:38.993Z,18.08
2023-03-13T14:36:38.853Z,18.20
2023-03-13T14:41:38.814Z,18.32
2023-03-13T14:46:38.804Z,18.03
2023-03-13T14:51:38.745Z,17.93
2023-03-13T14:56:38.612Z,17.86
2023-03-13T15:01:38.596Z,17.66
2023-03-13T15:06:38.695Z,17.62
2023-03-13T15:11:38.576Z,17.58
2023-03-13T15:16:38.533Z,17.89
2023-03-13T15:21:38.399Z,17.81
2023-03-13T15:26:38.310Z,17.63
2023-03-13T15:31:38.325Z,17.46
2023-03-13T15:36:38.182Z,17.46
2023-03-13T15:41:38.181Z,17.55
2023-03-13T15:46:38.108Z,17.55
2023-03-13T15:51:38.102Z,17.48
2023-03-13T15:56:38.048Z,17.59
2023-03-13T16:01:38.019Z,17.79
2023-03-13T16:06:37.875Z,17.55
2023-03-13T16:11:37.880Z,17.49
2023-03-13T16:16:38.081Z,17.37
2023-03-13T16:21:37.832Z,17.48
2023-03-13T16:26:37.679Z,17.12
2023-03-13T16:31:37.624Z,16.93
2023-03-13T16:36:37.525Z,16.85
2023-03-13T16:41:37.535Z,16.60
2023-03-13T16:46:37.475Z,16.48
2023-03-13T16:51:37.380Z,16.64
2023-03-13T16:56:37.303Z,16.60
2023-03-13T17:01:37.246Z,16.56
2023-03-13T17:06:37.367Z,16.27
2023-03-13T17:11:37.307Z,16.21
2023-03-13T17:16:37.198Z,16.21
2023-03-13T17:21:37.138Z,15.78
2023-03-13T17:26:39.067Z,15.74
2023-03-13T17:31:37.081Z,15.84
2023-03-13T17:36:37.074Z,15.65
2023-03-13T17:41:36.787Z,15.75
2023-03-13T17:46:36.781Z,15.59
2023-03-13T17:51:36.676Z,15.50
2023-03-13T17:56:36.797Z,15.41
2023-03-13T18:01:36.852Z,15.32
2023-03-13T18:06:36.710Z,15.36
2023-03-13T18:11:36.580Z,15.09
2023-03-13T18:16:36.412Z,15.35
2023-03-13T18:21:36.385Z,15.03
2023-03-13T18:26:37.312Z,14.92
2023-03-13T18:31:36.424Z,14.89
2023-03-13T18:36:36.261Z,14.77
2023-03-13T18:41:36.179Z,14.68
2023-03-13T18:46:36.197Z,14.80
2023-03-13T18:51:36.027Z,14.68
2023-03-13T18:56:35.971Z,14.77
2023-03-13T19:01:35.988Z,14.75
2023-03-13T19:06:35.931Z,14.72
2023-03-13T19:11:35.938Z,14.78
2023-03-13T19:16:35.974Z,14.68
2023-03-13T19:21:35.694Z,14.68
2023-03-13T19:26:35.673Z,14.64
2023-03-13T19:31:35.615Z,14.64
2023-03-13T19:36:36.342Z,14.65
2023-03-13T19:41:35.579Z,14.52
2023-03-13T19:46:35.683Z,14.69
2023-03-13T19:51:35.524Z,14.45
2023-03-13T19:56:35.322Z,14.47
2023-03-13T20:01:35.286Z,14.52
2023-03-13T20:06:35.211Z,14.32
2023-03-13T20:11:35.275Z,14.25
2023-03-13T20:16:35.462Z,13.92
2023-03-13T20:21:35.033Z,13.95
2023-03-13T20:26:34.989Z,13.95
2023-03-13T20:31:34.954Z,13.67
2023-03-13T20:36:34.928Z,13.89
2023-03-13T20:41:35.090Z,13.75
2023-03-13T20:46:34.825Z,13.69
2023-03-13T20:51:34.876Z,13.52
2023-03-13T20:56:34.730Z,13.49
2023-03-13T21:01:34.630Z,13.51
2023-03-13T21:06:34.525Z,13.29
2023-03-13T21:11:34.518Z,13.23
2023-03-13T21:16:34.627Z,13.26
2023-03-13T21:21:34.469Z,13.11
2023-03-13T21:26:34.566Z,13.19
2023-03-13T21:31:34.481Z,13.19
2023-03-13T21:36:34.218Z,13.42
2023-03-13T21:41:34.167Z,13.32
2023-03-13T21:46:34.180Z,13.17
2023-03-13T21:51:34.166Z,13.19
2023-03-13T21:56:34.174Z,13.10
2023-03-13T22:01:34.138Z,13.00
2023-03-13T22:06:33.891Z,13.07
2023-03-13T22:11:34.031Z,12.86
2023-03-13T22:16:33.739Z,12.83
2023-03-13T22:21:33.736Z,12.95
2023-03-13T22:26:33.660Z,12.90
2023-03-13T22:31:33.691Z,12.95
2023-03-13T22:36:33.561Z,13.04
2023-03-13T22:41:33.509Z,12.95
2023-03-13T22:46:33.439Z,12.85
2023-03-13T22:51:33.399Z,13.03
2023-03-13T22:56:33.347Z,12.82
2023-03-13T23:01:33.301Z,13.04
2023-03-13T23:06:33.358Z,12.85
2023-03-13T23:11:33.180Z,12.95
2023-03-13T23:16:33.091Z,12.78
2023-03-13T23:21:33.133Z,12.60
2023-03-13T23:26:33.209Z,12.56
2023-03-13T23:31:32.921Z,12.67
2023-03-13T23:36:32.970Z,12.57
2023-03-13T23:41:32.811Z,12.53
2023-03-13T23:46:32.849Z,12.52
2023-03-13T23:51:32.817Z,12.49
2023-03-13T23:56:32.669Z,12.50
